GMMC/CAS METAR and TAF weather

Enter ICAO airport designator
Station Type Date Time Source
GMMC METAR 2020/04/06 08:00 UTC NOAA

GMMC 060800Z 24004KT 6000 NSC 19/15 Q1020


Station Type Date Time Source
GMMC Decoded METAR 2020/04/06 08:00 UTC NOAA

Casablanca, Morocco (GMMC) 33-34N 007-40W 62M
Apr 06, 2020 - 04:00 AM EDT / 2020.04.06 0800 UTC
Wind: from the WSW (240 degrees) at 5 MPH (4 KT):0
Visibility: 3 mile(s):0
Temperature: 66 F (19 C)
Dew Point: 59 F (15 C)
Relative Humidity: 77%
Pressure (altimeter): 30.12 in. Hg (1020 hPa)
ob: GMMC 060800Z 24004KT 6000 NSC 19/15 Q1020
cycle: 8

Station Type Date Time Source
GMMC TAF 2016/05/22 17:00 UTC NOAA

FTMC31 GMMC 221700 RRA TAF LPPT 221700Z 2218/2324 34013KT CAVOK
BECMG 2221/2224 34007KT
BECMG 2310/2312 VRB03KT

Example: see airport list